Giewont — C6YE4 — position and weather

sailwx.info

Track history (hours):
 
Tides and Currents Weather Stations Pressure Air Temp Water Temp Dewpoint Dewpoint Depression Visibility Wind Speed Wind Dir Waves Ship Positions

Giewont

Last reported at 2016-Jul-20 03:18 UTC. Time now 2016-Aug-26 13:38 UTC.
Position N 37°26' E 025°56'.
Warning: this ship's position is 37 days out of date.

Length 229 m; draft 13.3 m.

Type: Cargo ship. MMSI: 311029800.

Date/timePositionNaut miles runAvg speedWind from/ knotsBaromVisibWave heightAir tempDewpointWater temp
2016-Jul-20 03:18N 37°26' E 025°56'15411.7
2016-Jul-19 14:09N 40°01' E 026°02'420 9.4
2016-Jul-17 17:24N 43°18' E 034°19'1412.2
2016-Jul-17 16:15N 43°24' E 034°36'912.1
2016-Jul-17 15:31N 43°28' E 034°47'1412.2
2016-Jul-17 14:23N 43°34' E 035°04'1112.4
2016-Jul-17 13:29N 43°39' E 035°18'2712.7
2016-Jul-17 11:21N 43°52' E 035°51'1012.7
2016-Jul-17 10:32N 43°56' E 036°04'7412.4
2016-Jul-17 04:34N 44°30' E 037°36'1212.0
2016-Jul-17 03:34N 44°34' E 037°52'2 2.1
2016-Jul-17 02:33N 44°35' E 037°54'0 0.0
2016-Jul-17 01:33N 44°35' E 037°55'0 0.0
2016-Jul-17 00:33N 44°35' E 037°55'0 0.0
2016-Jul-16 23:27N 44°35' E 037°55'0 0.0
2016-Jul-16 22:33N 44°35' E 037°55'0 0.0
2016-Jul-16 21:21N 44°35' E 037°55'0 0.0
2016-Jul-16 20:32N 44°35' E 037°55'0 0.0
2016-Jul-16 19:30N 44°35' E 037°55'0 0.0
2016-Jul-16 18:32N 44°35' E 037°55'0 0.0
2016-Jul-16 17:32N 44°35' E 037°55'0 0.0
2016-Jul-16 16:32N 44°35' E 037°55'0 0.0
2016-Jul-16 15:33N 44°35' E 037°55'0 0.0
2016-Jul-16 14:32N 44°35' E 037°55'0 0.1
2016-Jul-16 13:32N 44°35' E 037°55'2 1.6
2016-Jul-16 12:33N 44°36' E 037°53'8 8.0
2016-Jul-16 11:33N 44°43' E 037°48'1 0.7
2016-Jul-16 10:33N 44°44' E 037°47'0 0.0
2016-Jul-16 09:30N 44°44' E 037°47'0 0.0
2016-Jul-16 08:33N 44°44' E 037°47'0 0.0
2016-Jul-16 07:30N 44°44' E 037°47'0 0.0
2016-Jul-16 06:33N 44°44' E 037°47'0 0.0
2016-Jul-16 04:33N 44°44' E 037°47'0 0.0
2016-Jul-16 03:33N 44°44' E 037°47'0 0.0
2016-Jul-16 02:33N 44°44' E 037°47'0 0.0
2016-Jul-16 01:33N 44°44' E 037°47'0 0.0
2016-Jul-16 00:33N 44°44' E 037°47'0 0.0
2016-Jul-15 23:33N 44°44' E 037°47'0 0.0
2016-Jul-15 22:33N 44°44' E 037°47'0 0.0
2016-Jul-15 21:33N 44°44' E 037°47'0 0.0
2016-Jul-15 20:33N 44°44' E 037°47'0 0.0
2016-Jul-15 19:27N 44°44' E 037°47'0 0.0
2016-Jul-15 18:33N 44°44' E 037°47'0 0.0
2016-Jul-15 17:27N 44°44' E 037°47'0 0.0
2016-Jul-15 16:33N 44°44' E 037°47'0 0.0
2016-Jul-15 15:33N 44°44' E 037°47'0 0.0
2016-Jul-15 14:33N 44°44' E 037°47'0 0.0
2016-Jul-15 13:30N 44°44' E 037°47'0 0.0
2016-Jul-15 12:33N 44°44' E 037°47'0 0.0
2016-Jul-15 11:33N 44°44' E 037°47'0 0.0
2016-Jul-15 10:33N 44°44' E 037°47'0 0.0
2016-Jul-15 09:33N 44°44' E 037°47'0 0.0
2016-Jul-15 08:33N 44°44' E 037°47'0 0.0
2016-Jul-15 07:33N 44°44' E 037°47'0 0.0
2016-Jul-15 06:33N 44°44' E 037°47'0 0.0
2016-Jul-15 05:33N 44°44' E 037°47'0 0.0
2016-Jul-15 04:33N 44°44' E 037°47'0 0.0
2016-Jul-15 03:33N 44°44' E 037°47'0 0.0
2016-Jul-15 02:33N 44°44' E 037°47'0 0.0
2016-Jul-15 01:33N 44°44' E 037°47'0 0.0
2016-Jul-15 00:33N 44°44' E 037°47'0 0.0
2016-Jul-14 23:33N 44°44' E 037°47'0 0.0
2016-Jul-14 22:33N 44°44' E 037°47'0 0.0
2016-Jul-14 21:33N 44°44' E 037°47'0 0.0
2016-Jul-14 20:34N 44°44' E 037°47'1 1.5
2016-Jul-14 19:33N 44°43' E 037°49'0 0.4
2016-Jul-14 18:34N 44°43' E 037°49'0 0.0
2016-Jul-14 17:30N 44°43' E 037°49'0 0.0
2016-Jul-14 16:33N 44°43' E 037°49'0 0.0
2016-Jul-14 15:33N 44°43' E 037°49'0 0.0
2016-Jul-14 14:30N 44°43' E 037°49'0 0.0
2016-Jul-14 13:33N 44°43' E 037°49'0 0.0
2016-Jul-14 12:30N 44°43' E 037°49'0 0.0
2016-Jul-14 11:33N 44°43' E 037°49'0 0.0
2016-Jul-14 10:33N 44°43' E 037°49'0 0.0
2016-Jul-14 09:33N 44°43' E 037°49'0 0.0
2016-Jul-14 08:33N 44°43' E 037°49'0 0.0
2016-Jul-14 07:33N 44°43' E 037°49'0 0.0
2016-Jul-14 06:33N 44°43' E 037°49'0 0.0
2016-Jul-14 05:33N 44°43' E 037°49'0 0.0
2016-Jul-14 04:33N 44°43' E 037°49'0 0.0
2016-Jul-14 03:33N 44°43' E 037°49'0 0.0
2016-Jul-14 02:27N 44°43' E 037°49'0 0.0
2016-Jul-14 01:33N 44°43' E 037°49'0 0.0
2016-Jul-14 00:33N 44°43' E 037°49'0 0.0
2016-Jul-13 23:33N 44°43' E 037°49'0 0.0
2016-Jul-13 22:33N 44°43' E 037°49'0 0.0
2016-Jul-13 21:33N 44°43' E 037°49'0 0.0
2016-Jul-13 20:33N 44°43' E 037°49'0 0.0
2016-Jul-13 19:33N 44°43' E 037°49'0 0.0
2016-Jul-13 18:33N 44°43' E 037°49'0 0.0
2016-Jul-13 17:33N 44°43' E 037°49'0 0.0
2016-Jul-13 16:33N 44°43' E 037°49'0 0.0
2016-Jul-13 15:33N 44°43' E 037°49'0 0.0
2016-Jul-13 14:33N 44°43' E 037°49'0 0.0
2016-Jul-13 13:33N 44°43' E 037°49'0 0.0
2016-Jul-13 12:33N 44°43' E 037°49'0 0.0
2016-Jul-13 11:33N 44°43' E 037°49'0 0.0
2016-Jul-13 10:33N 44°43' E 037°49'0 0.0
2016-Jul-13 09:33N 44°43' E 037°49'0 0.0
2016-Jul-13 08:33N 44°43' E 037°49'0 0.0
2016-Jul-13 07:30N 44°43' E 037°49'0 0.0
2016-Jul-13 06:33N 44°43' E 037°49'0 0.0
2016-Jul-13 05:33N 44°43' E 037°49'0 0.0
2016-Jul-13 04:33N 44°43' E 037°49'0 0.0
2016-Jul-13 03:33N 44°43' E 037°49'0 0.0
2016-Jul-13 02:33N 44°43' E 037°49'0 0.0
2016-Jul-13 01:33N 44°43' E 037°49'0 0.0
2016-Jul-13 00:33N 44°43' E 037°49'0 0.0
2016-Jul-12 23:33N 44°43' E 037°49'0 0.0
2016-Jul-12 22:33N 44°43' E 037°49'0 0.0
2016-Jul-12 21:33N 44°43' E 037°49'0 0.0
2016-Jul-12 20:30N 44°43' E 037°49'0 0.0
2016-Jul-12 19:33N 44°43' E 037°49'0 0.0
2016-Jul-12 18:33N 44°43' E 037°49'0 0.0
2016-Jul-12 17:33N 44°43' E 037°49'0 0.0
2016-Jul-12 16:33N 44°43' E 037°49'0 0.0
2016-Jul-12 15:33N 44°43' E 037°49'0 0.0
2016-Jul-12 14:33N 44°43' E 037°49'0 0.0
2016-Jul-12 13:33N 44°43' E 037°49'0 0.0
2016-Jul-12 12:33N 44°43' E 037°49'0 0.0
2016-Jul-12 11:33N 44°43' E 037°49'0 0.0
2016-Jul-12 10:33N 44°43' E 037°49'0 0.0
2016-Jul-12 09:33N 44°43' E 037°49'0 0.0
2016-Jul-12 08:33N 44°43' E 037°49'0 0.0
2016-Jul-12 07:33N 44°43' E 037°49'0 0.0
2016-Jul-12 06:33N 44°43' E 037°49'5 5.3
2016-Jul-12 05:34N 44°38' E 037°51'9 9.2
2016-Jul-12 04:34N 44°30' E 037°45'1212.4
2016-Jul-12 03:33N 44°24' E 037°30'  
Track history (hours):
 
Tides and Currents Weather Stations Pressure Air Temp Water Temp Dewpoint Dewpoint Depression Visibility Wind Speed Wind Dir Waves Ship Positions

Giewont

Last reported at 2016-Jul-20 03:18 UTC. Time now 2016-Aug-26 13:38 UTC.
Position N 37°26' E 025°56'.
Warning: this ship's position is 37 days out of date.

Length 229 m; draft 13.3 m.

Type: Cargo ship. MMSI: 311029800.

Date/timePositionNaut miles runAvg speedWind from/ knotsBaromVisibWave heightAir tempDewpointWater temp
2016-Jul-20 03:18N 37°26' E 025°56'15411.7
2016-Jul-19 14:09N 40°01' E 026°02'420 9.4
2016-Jul-17 17:24N 43°18' E 034°19'1412.2
2016-Jul-17 16:15N 43°24' E 034°36'912.1
2016-Jul-17 15:31N 43°28' E 034°47'1412.2
2016-Jul-17 14:23N 43°34' E 035°04'1112.4
2016-Jul-17 13:29N 43°39' E 035°18'2712.7
2016-Jul-17 11:21N 43°52' E 035°51'1012.7
2016-Jul-17 10:32N 43°56' E 036°04'7412.4
2016-Jul-17 04:34N 44°30' E 037°36'1212.0
2016-Jul-17 03:34N 44°34' E 037°52'2 2.1
2016-Jul-17 02:33N 44°35' E 037°54'0 0.0
2016-Jul-17 01:33N 44°35' E 037°55'0 0.0
2016-Jul-17 00:33N 44°35' E 037°55'0 0.0
2016-Jul-16 23:27N 44°35' E 037°55'0 0.0
2016-Jul-16 22:33N 44°35' E 037°55'0 0.0
2016-Jul-16 21:21N 44°35' E 037°55'0 0.0
2016-Jul-16 20:32N 44°35' E 037°55'0 0.0
2016-Jul-16 19:30N 44°35' E 037°55'0 0.0
2016-Jul-16 18:32N 44°35' E 037°55'0 0.0
2016-Jul-16 17:32N 44°35' E 037°55'0 0.0
2016-Jul-16 16:32N 44°35' E 037°55'0 0.0
2016-Jul-16 15:33N 44°35' E 037°55'0 0.0
2016-Jul-16 14:32N 44°35' E 037°55'0 0.1
2016-Jul-16 13:32N 44°35' E 037°55'2 1.6
2016-Jul-16 12:33N 44°36' E 037°53'8 8.0
2016-Jul-16 11:33N 44°43' E 037°48'1 0.7
2016-Jul-16 10:33N 44°44' E 037°47'0 0.0
2016-Jul-16 09:30N 44°44' E 037°47'0 0.0
2016-Jul-16 08:33N 44°44' E 037°47'0 0.0
2016-Jul-16 07:30N 44°44' E 037°47'0 0.0
2016-Jul-16 06:33N 44°44' E 037°47'0 0.0
2016-Jul-16 04:33N 44°44' E 037°47'0 0.0
2016-Jul-16 03:33N 44°44' E 037°47'0 0.0
2016-Jul-16 02:33N 44°44' E 037°47'0 0.0
2016-Jul-16 01:33N 44°44' E 037°47'0 0.0
2016-Jul-16 00:33N 44°44' E 037°47'0 0.0
2016-Jul-15 23:33N 44°44' E 037°47'0 0.0
2016-Jul-15 22:33N 44°44' E 037°47'0 0.0
2016-Jul-15 21:33N 44°44' E 037°47'0 0.0
2016-Jul-15 20:33N 44°44' E 037°47'0 0.0
2016-Jul-15 19:27N 44°44' E 037°47'0 0.0
2016-Jul-15 18:33N 44°44' E 037°47'0 0.0
2016-Jul-15 17:27N 44°44' E 037°47'0 0.0
2016-Jul-15 16:33N 44°44' E 037°47'0 0.0
2016-Jul-15 15:33N 44°44' E 037°47'0 0.0
2016-Jul-15 14:33N 44°44' E 037°47'0 0.0
2016-Jul-15 13:30N 44°44' E 037°47'0 0.0
2016-Jul-15 12:33N 44°44' E 037°47'0 0.0
2016-Jul-15 11:33N 44°44' E 037°47'0 0.0
2016-Jul-15 10:33N 44°44' E 037°47'0 0.0
2016-Jul-15 09:33N 44°44' E 037°47'0 0.0
2016-Jul-15 08:33N 44°44' E 037°47'0 0.0
2016-Jul-15 07:33N 44°44' E 037°47'0 0.0
2016-Jul-15 06:33N 44°44' E 037°47'0 0.0
2016-Jul-15 05:33N 44°44' E 037°47'0 0.0
2016-Jul-15 04:33N 44°44' E 037°47'0 0.0
2016-Jul-15 03:33N 44°44' E 037°47'0 0.0
2016-Jul-15 02:33N 44°44' E 037°47'0 0.0
2016-Jul-15 01:33N 44°44' E 037°47'0 0.0
2016-Jul-15 00:33N 44°44' E 037°47'0 0.0
2016-Jul-14 23:33N 44°44' E 037°47'0 0.0
2016-Jul-14 22:33N 44°44' E 037°47'0 0.0
2016-Jul-14 21:33N 44°44' E 037°47'0 0.0
2016-Jul-14 20:34N 44°44' E 037°47'1 1.5
2016-Jul-14 19:33N 44°43' E 037°49'0 0.4
2016-Jul-14 18:34N 44°43' E 037°49'0 0.0
2016-Jul-14 17:30N 44°43' E 037°49'0 0.0
2016-Jul-14 16:33N 44°43' E 037°49'0 0.0
2016-Jul-14 15:33N 44°43' E 037°49'0 0.0
2016-Jul-14 14:30N 44°43' E 037°49'0 0.0
2016-Jul-14 13:33N 44°43' E 037°49'0 0.0
2016-Jul-14 12:30N 44°43' E 037°49'0 0.0
2016-Jul-14 11:33N 44°43' E 037°49'0 0.0
2016-Jul-14 10:33N 44°43' E 037°49'0 0.0
2016-Jul-14 09:33N 44°43' E 037°49'0 0.0
2016-Jul-14 08:33N 44°43' E 037°49'0 0.0
2016-Jul-14 07:33N 44°43' E 037°49'0 0.0
2016-Jul-14 06:33N 44°43' E 037°49'0 0.0
2016-Jul-14 05:33N 44°43' E 037°49'0 0.0
2016-Jul-14 04:33N 44°43' E 037°49'0 0.0
2016-Jul-14 03:33N 44°43' E 037°49'0 0.0
2016-Jul-14 02:27N 44°43' E 037°49'0 0.0
2016-Jul-14 01:33N 44°43' E 037°49'0 0.0
2016-Jul-14 00:33N 44°43' E 037°49'0 0.0
2016-Jul-13 23:33N 44°43' E 037°49'0 0.0
2016-Jul-13 22:33N 44°43' E 037°49'0 0.0
2016-Jul-13 21:33N 44°43' E 037°49'0 0.0
2016-Jul-13 20:33N 44°43' E 037°49'0 0.0
2016-Jul-13 19:33N 44°43' E 037°49'0 0.0
2016-Jul-13 18:33N 44°43' E 037°49'0 0.0
2016-Jul-13 17:33N 44°43' E 037°49'0 0.0
2016-Jul-13 16:33N 44°43' E 037°49'0 0.0
2016-Jul-13 15:33N 44°43' E 037°49'0 0.0
2016-Jul-13 14:33N 44°43' E 037°49'0 0.0
2016-Jul-13 13:33N 44°43' E 037°49'0 0.0
2016-Jul-13 12:33N 44°43' E 037°49'0 0.0
2016-Jul-13 11:33N 44°43' E 037°49'0 0.0
2016-Jul-13 10:33N 44°43' E 037°49'0 0.0
2016-Jul-13 09:33N 44°43' E 037°49'0 0.0
2016-Jul-13 08:33N 44°43' E 037°49'0 0.0
2016-Jul-13 07:30N 44°43' E 037°49'0 0.0
2016-Jul-13 06:33N 44°43' E 037°49'0 0.0
2016-Jul-13 05:33N 44°43' E 037°49'0 0.0
2016-Jul-13 04:33N 44°43' E 037°49'0 0.0
2016-Jul-13 03:33N 44°43' E 037°49'0 0.0
2016-Jul-13 02:33N 44°43' E 037°49'0 0.0
2016-Jul-13 01:33N 44°43' E 037°49'0 0.0
2016-Jul-13 00:33N 44°43' E 037°49'0 0.0
2016-Jul-12 23:33N 44°43' E 037°49'0 0.0
2016-Jul-12 22:33N 44°43' E 037°49'0 0.0
2016-Jul-12 21:33N 44°43' E 037°49'0 0.0
2016-Jul-12 20:30N 44°43' E 037°49'0 0.0
2016-Jul-12 19:33N 44°43' E 037°49'0 0.0
2016-Jul-12 18:33N 44°43' E 037°49'0 0.0
2016-Jul-12 17:33N 44°43' E 037°49'0 0.0
2016-Jul-12 16:33N 44°43' E 037°49'0 0.0
2016-Jul-12 15:33N 44°43' E 037°49'0 0.0
2016-Jul-12 14:33N 44°43' E 037°49'0 0.0
2016-Jul-12 13:33N 44°43' E 037°49'0 0.0
2016-Jul-12 12:33N 44°43' E 037°49'0 0.0
2016-Jul-12 11:33N 44°43' E 037°49'0 0.0
2016-Jul-12 10:33N 44°43' E 037°49'0 0.0
2016-Jul-12 09:33N 44°43' E 037°49'0 0.0
2016-Jul-12 08:33N 44°43' E 037°49'0 0.0
2016-Jul-12 07:33N 44°43' E 037°49'0 0.0
2016-Jul-12 06:33N 44°43' E 037°49'5 5.3
2016-Jul-12 05:34N 44°38' E 037°51'9 9.2
2016-Jul-12 04:34N 44°30' E 037°45'1212.4
2016-Jul-12 03:33N 44°24' E 037°30'  

Dump ship's entire track history